This is the latest recevied weather packets stored in our database for station/object VE1UHF-4. If no packets are shown the sender has not sent any weather packets the latest 10 day(s).
| Time | Temp. | Humidity | Pressure | Rain* | Wind** | Luminosity | Snow |
|---|---|---|---|---|---|---|---|
| 1777966410 | 8.89° C | 80% | 1002.7 hPa | 0 mm | - | - | - |
| 1777965509 | 8.89° C | 80% | 1002.6 hPa | 0 mm | - | - | - |
| 1777964609 | 8.89° C | 80% | 1002.4 hPa | 0 mm | - | - | - |
| 1777962808 | 9.44° C | 80% | 1001.9 hPa | 0 mm | - | - | - |
| 1777961907 | 9.44° C | 79% | 1001.5 hPa | 0 mm | - | - | - |
| 1777961007 | 9.44° C | 79% | 1001.4 hPa | 0 mm | - | - | - |
| 1777960106 | 9.44° C | 79% | 1001.3 hPa | 0 mm | - | - | - |
| 1777959206 | 9.44° C | 79% | 1001.3 hPa | 0 mm | - | - | - |
| 1777958305 | 10° C | 78% | 1001.3 hPa | 0 mm | - | - | - |
| 1777957404 | 10° C | 78% | 1001.2 hPa | 0 mm | - | - | - |
| 1777956504 | 10° C | 78% | 1001 hPa | 0 mm | - | - | - |
| 1777955603 | 10.56° C | 78% | 1001 hPa | 0 mm | - | - | - |
| 1777954703 | 10.56° C | 78% | 1000.8 hPa | 0 mm | - | - | - |
| 1777941195 | 14.44° C | 77% | 997.8 hPa | 0 mm | - | - | - |
| 1777939397 | 15° C | 76% | 997.2 hPa | 0 mm | - | - | - |
| 1777937593 | 15.56° C | 76% | 996.6 hPa | 0 mm | - | - | - |
| 1777933090 | 17.22° C | 76% | 995.9 hPa | 0 mm | - | - | - |
| 1777931289 | 17.78° C | 76% | 995.5 hPa | 0 mm | - | - | - |
| 1777929488 | 18.33° C | 77% | 995.5 hPa | 0 mm | - | - | - |
| 1777927687 | 18.33° C | 78% | 995.3 hPa | 0 mm | - | - | - |
| 1777923184 | 18.89° C | 81% | 994.5 hPa | 0 mm | - | - | - |
| 1777922283 | 18.89° C | 81% | 994.4 hPa | 0 mm | - | - | - |
| 1777919582 | 18.89° C | 86% | 994.4 hPa | 0 mm | - | - | - |
| 1777918681 | 18.33° C | 86% | 994.4 hPa | 0 mm | - | - | - |
| 1777917781 | 18.33° C | 87% | 994.4 hPa | 0 mm | - | - | - |
* Rain since midnight (hover to see other rain measurements)
** Current wind speed in m/s (hover to see current wind gust speed)